createdAt,value
2019-04-12T00:00:03.400Z,4.15
2019-04-12T00:01:03.692Z,4.15
2019-04-12T00:02:03.463Z,4.15
2019-04-12T00:03:02.937Z,4.15
2019-04-12T00:04:02.908Z,4.15
2019-04-12T00:05:02.972Z,4.11
2019-04-12T00:06:03.343Z,4.12
2019-04-12T00:07:03.928Z,4.11
2019-04-12T00:08:02.957Z,4.11
2019-04-12T00:09:02.886Z,4.11
2019-04-12T00:10:02.883Z,4.11
2019-04-12T00:11:02.960Z,4.11
2019-04-12T00:12:02.898Z,4.10
2019-04-12T00:13:02.964Z,4.08
2019-04-12T00:14:02.964Z,4.07
2019-04-12T00:15:02.891Z,4.08
2019-04-12T00:16:02.963Z,4.07
2019-04-12T00:17:02.905Z,4.07
2019-04-12T00:18:02.981Z,4.06
2019-04-12T00:19:02.911Z,4.06
2019-04-12T00:20:02.986Z,4.04
2019-04-12T00:21:02.982Z,4.04
2019-04-12T00:22:02.933Z,4.03
2019-04-12T00:23:02.918Z,4.01
2019-04-12T00:24:02.981Z,4.01
2019-04-12T00:25:03.100Z,4.01
2019-04-12T00:26:02.870Z,4.01
2019-04-12T00:27:02.925Z,4.01
2019-04-12T00:28:02.917Z,4.04
2019-04-12T00:29:02.915Z,4.04
2019-04-12T00:30:02.974Z,4.01
2019-04-12T00:31:02.951Z,4.01
2019-04-12T00:32:02.996Z,4.00
2019-04-12T00:33:02.917Z,3.99
2019-04-12T00:34:02.989Z,4.00
2019-04-12T00:35:02.998Z,4.00
2019-04-12T00:36:02.993Z,3.99
2019-04-12T00:37:02.933Z,3.97
2019-04-12T00:38:02.993Z,3.96
2019-04-12T00:39:02.941Z,3.97
2019-04-12T00:40:02.981Z,3.96
2019-04-12T00:41:03.037Z,3.95
2019-04-12T00:42:03.704Z,3.95
2019-04-12T00:43:03.728Z,3.93
2019-04-12T00:44:03.309Z,3.96
2019-04-12T00:45:05.129Z,3.95
2019-04-12T00:46:05.880Z,3.95
2019-04-12T00:47:02.984Z,3.95
2019-04-12T00:48:03.009Z,3.95
2019-04-12T00:49:02.928Z,3.93
2019-04-12T00:50:03.005Z,3.92
2019-04-12T00:51:04.343Z,3.92
2019-04-12T00:52:02.931Z,3.90
2019-04-12T00:53:02.923Z,3.89
2019-04-12T00:54:03.011Z,3.87
2019-04-12T00:55:02.892Z,3.87
2019-04-12T00:56:02.996Z,3.87
2019-04-12T00:57:02.938Z,3.89
2019-04-12T00:58:03.011Z,3.89
2019-04-12T00:59:03.019Z,3.85
2019-04-12T01:00:02.972Z,3.85
2019-04-12T01:01:03.019Z,3.84
2019-04-12T01:02:02.936Z,3.87
2019-04-12T01:03:02.955Z,3.89
2019-04-12T01:04:02.941Z,3.87
2019-04-12T01:05:03.021Z,3.87
2019-04-12T01:06:02.954Z,3.85
2019-04-12T01:07:02.942Z,3.85
2019-04-12T01:08:02.928Z,3.85
2019-04-12T01:09:03.007Z,3.85
2019-04-12T01:10:03.005Z,3.83
2019-04-12T01:11:02.932Z,3.83
2019-04-12T01:12:02.940Z,3.84
2019-04-12T01:13:03.007Z,3.83
2019-04-12T01:14:02.942Z,3.83
2019-04-12T01:15:03.006Z,3.81
2019-04-12T01:16:04.480Z,3.80
2019-04-12T01:17:03.007Z,3.80
2019-04-12T01:18:02.944Z,3.81
2019-04-12T01:19:03.207Z,3.81
2019-04-12T01:20:04.740Z,3.80
2019-04-12T01:21:06.557Z,3.80
2019-04-12T01:22:03.019Z,3.77
2019-04-12T01:23:02.938Z,3.78
2019-04-12T01:24:03.013Z,3.77
2019-04-12T01:25:02.943Z,3.76
2019-04-12T01:26:03.013Z,3.76
2019-04-12T01:27:02.954Z,3.76
2019-04-12T01:28:03.015Z,3.77
2019-04-12T01:29:02.945Z,3.76
2019-04-12T01:30:03.018Z,3.74
2019-04-12T01:31:02.947Z,3.76
2019-04-12T01:32:03.030Z,3.76
2019-04-12T01:33:02.948Z,3.77
2019-04-12T01:34:03.021Z,3.76
2019-04-12T01:35:02.945Z,3.77
2019-04-12T01:36:03.021Z,3.77
2019-04-12T01:37:02.959Z,3.76
2019-04-12T01:38:03.049Z,3.74
2019-04-12T01:39:02.974Z,3.74
2019-04-12T01:40:03.044Z,3.73
2019-04-12T01:41:03.038Z,3.72
2019-04-12T01:42:03.050Z,3.72
2019-04-12T01:43:03.037Z,3.72
2019-04-12T01:44:02.970Z,3.72
2019-04-12T01:45:02.971Z,3.69
2019-04-12T01:46:03.037Z,3.68
2019-04-12T01:47:02.977Z,3.68
2019-04-12T01:48:02.940Z,3.68
2019-04-12T01:49:02.931Z,3.66
2019-04-12T01:50:03.032Z,3.65
2019-04-12T01:51:02.910Z,3.68
2019-04-12T01:52:02.972Z,3.65
2019-04-12T01:53:02.908Z,3.65
2019-04-12T01:54:02.915Z,3.62
2019-04-12T01:55:08.958Z,3.61
2019-04-12T01:56:03.029Z,3.61
2019-04-12T01:57:02.986Z,3.59
2019-04-12T01:58:02.980Z,3.59
2019-04-12T01:59:02.990Z,3.59
2019-04-12T02:00:03.001Z,3.58
2019-04-12T02:01:03.055Z,3.57
2019-04-12T02:02:03.060Z,3.55
2019-04-12T02:03:03.053Z,3.57
2019-04-12T02:04:02.982Z,3.55
2019-04-12T02:05:03.064Z,3.55
2019-04-12T02:06:03.049Z,3.57
2019-04-12T02:07:03.061Z,3.55
2019-04-12T02:08:03.058Z,3.55
2019-04-12T02:09:02.993Z,3.55
2019-04-12T02:10:03.004Z,3.54
2019-04-12T02:11:02.991Z,3.54
2019-04-12T02:12:03.025Z,3.55
2019-04-12T02:13:02.997Z,3.55
2019-04-12T02:14:03.058Z,3.57
2019-04-12T02:15:02.977Z,3.58
2019-04-12T02:16:03.025Z,3.58
2019-04-12T02:17:02.994Z,3.57
2019-04-12T02:18:03.073Z,3.55
2019-04-12T02:19:02.993Z,3.54
2019-04-12T02:20:03.003Z,3.54
2019-04-12T02:21:03.066Z,3.51
2019-04-12T02:22:03.065Z,3.53
2019-04-12T02:23:03.073Z,3.53
2019-04-12T02:24:03.070Z,3.51
2019-04-12T02:25:03.070Z,3.50
2019-04-12T02:26:03.002Z,3.50
2019-04-12T02:27:03.003Z,3.48
2019-04-12T02:28:02.991Z,3.48
2019-04-12T02:29:02.994Z,3.50
2019-04-12T02:30:02.945Z,3.50
2019-04-12T02:31:02.989Z,3.50
2019-04-12T02:32:03.071Z,3.51
2019-04-12T02:33:03.016Z,3.51
2019-04-12T02:34:02.965Z,3.53
2019-04-12T02:35:02.939Z,3.54
2019-04-12T02:36:02.989Z,3.53
2019-04-12T02:37:02.964Z,3.54
2019-04-12T02:38:03.058Z,3.53
2019-04-12T02:39:03.077Z,3.54
2019-04-12T02:40:03.083Z,3.53
2019-04-12T02:41:03.089Z,3.53
2019-04-12T02:42:03.072Z,3.53
2019-04-12T02:43:03.081Z,3.50
2019-04-12T02:44:03.092Z,3.50
2019-04-12T02:45:03.018Z,3.48
2019-04-12T02:46:03.035Z,3.48
2019-04-12T02:47:03.147Z,3.47
2019-04-12T02:48:03.087Z,3.46
2019-04-12T02:49:03.008Z,3.46
2019-04-12T02:50:03.077Z,3.46
2019-04-12T02:51:03.017Z,3.46
2019-04-12T02:52:03.077Z,3.46
2019-04-12T02:53:03.008Z,3.46
2019-04-12T02:54:03.016Z,3.44
2019-04-12T02:55:03.018Z,3.42
2019-04-12T02:56:03.085Z,3.40
2019-04-12T02:57:03.031Z,3.40
2019-04-12T02:58:03.022Z,3.39
2019-04-12T02:59:03.110Z,3.39
2019-04-12T03:00:03.095Z,3.42
2019-04-12T03:01:03.095Z,3.40
2019-04-12T03:02:03.106Z,3.39
2019-04-12T03:03:03.098Z,3.37
2019-04-12T03:04:03.020Z,3.39
2019-04-12T03:05:03.110Z,3.37
2019-04-12T03:06:03.034Z,3.36
2019-04-12T03:07:03.039Z,3.35
2019-04-12T03:08:03.102Z,3.36
2019-04-12T03:09:03.014Z,3.35
2019-04-12T03:10:03.091Z,3.33
2019-04-12T03:11:03.105Z,3.35
2019-04-12T03:12:03.107Z,3.35
2019-04-12T03:13:03.092Z,3.35
2019-04-12T03:14:03.016Z,3.33
2019-04-12T03:15:03.177Z,3.32
2019-04-12T03:16:03.095Z,3.32
2019-04-12T03:17:03.108Z,3.29
2019-04-12T03:18:03.032Z,3.31
2019-04-12T03:19:03.029Z,3.28
2019-04-12T03:20:03.105Z,3.26
2019-04-12T03:21:03.031Z,3.26
2019-04-12T03:22:03.096Z,3.25
2019-04-12T03:23:03.029Z,3.24
2019-04-12T03:24:03.101Z,3.25
2019-04-12T03:25:03.052Z,3.24
2019-04-12T03:26:03.065Z,3.24
2019-04-12T03:27:03.103Z,3.24
2019-04-12T03:28:03.101Z,3.24
2019-04-12T03:29:03.014Z,3.22
2019-04-12T03:30:03.095Z,3.22
2019-04-12T03:31:03.102Z,3.22
2019-04-12T03:32:03.161Z,3.22
2019-04-12T03:33:02.998Z,3.21
2019-04-12T03:34:02.993Z,3.21
2019-04-12T03:35:03.018Z,3.20
2019-04-12T03:36:03.109Z,3.17
2019-04-12T03:37:03.031Z,3.21
2019-04-12T03:38:03.031Z,3.17
2019-04-12T03:39:03.122Z,3.17
2019-04-12T03:40:03.128Z,3.17
2019-04-12T03:41:03.060Z,3.16
2019-04-12T03:42:03.129Z,3.14
2019-04-12T03:43:03.066Z,3.14
2019-04-12T03:44:03.135Z,3.14
2019-04-12T03:45:03.058Z,3.16
2019-04-12T03:46:03.066Z,3.14
2019-04-12T03:47:03.062Z,3.16
2019-04-12T03:48:03.139Z,3.14
2019-04-12T03:49:03.121Z,3.13
2019-04-12T03:50:03.059Z,3.13
2019-04-12T03:51:03.059Z,3.13
2019-04-12T03:52:03.053Z,3.12
2019-04-12T03:53:03.124Z,3.12
2019-04-12T03:54:03.045Z,3.14
2019-04-12T03:55:03.136Z,3.13
2019-04-12T03:56:08.789Z,3.13
2019-04-12T03:57:03.149Z,3.13
2019-04-12T03:58:03.050Z,3.12
2019-04-12T03:59:03.128Z,3.12
2019-04-12T04:00:03.055Z,3.09
2019-04-12T04:01:03.137Z,3.09
2019-04-12T04:02:03.059Z,3.07
2019-04-12T04:03:03.131Z,3.07
2019-04-12T04:04:03.054Z,3.06
2019-04-12T04:05:03.131Z,3.06
2019-04-12T04:06:03.084Z,3.05
2019-04-12T04:07:03.142Z,3.03
2019-04-12T04:08:03.128Z,3.05
2019-04-12T04:09:03.064Z,3.03
2019-04-12T04:10:03.062Z,3.03
2019-04-12T04:11:03.057Z,3.03
2019-04-12T04:12:03.126Z,3.03
2019-04-12T04:13:03.133Z,3.03
2019-04-12T04:14:03.137Z,3.02
2019-04-12T04:15:03.040Z,3.01
2019-04-12T04:16:03.102Z,2.99
2019-04-12T04:17:03.041Z,2.98
2019-04-12T04:18:03.128Z,2.99
2019-04-12T04:19:03.103Z,2.98
2019-04-12T04:20:03.081Z,2.98
2019-04-12T04:21:03.059Z,2.95
2019-04-12T04:22:03.101Z,2.95
2019-04-12T04:23:03.150Z,2.95
2019-04-12T04:24:03.100Z,2.94
2019-04-12T04:25:03.090Z,2.95
2019-04-12T04:26:03.157Z,2.95
2019-04-12T04:27:03.173Z,2.96
2019-04-12T04:28:03.091Z,2.96
2019-04-12T04:29:03.172Z,2.95
2019-04-12T04:30:03.096Z,2.95
2019-04-12T04:31:03.165Z,2.94
2019-04-12T04:32:03.141Z,2.91
2019-04-12T04:33:03.095Z,2.91
2019-04-12T04:34:03.126Z,2.92
2019-04-12T04:35:03.094Z,2.91
2019-04-12T04:36:03.093Z,2.92
2019-04-12T04:37:03.172Z,2.92
2019-04-12T04:38:03.169Z,2.92
2019-04-12T04:39:03.095Z,2.92
2019-04-12T04:40:03.126Z,2.92
2019-04-12T04:41:03.172Z,2.91
2019-04-12T04:42:03.103Z,2.88
2019-04-12T04:43:03.103Z,2.88
2019-04-12T04:44:03.121Z,2.87
2019-04-12T04:45:03.098Z,2.84
2019-04-12T04:46:03.100Z,2.84
2019-04-12T04:47:03.176Z,2.83
2019-04-12T04:48:03.101Z,2.83
2019-04-12T04:49:03.174Z,2.83
2019-04-12T04:50:03.185Z,2.81
2019-04-12T04:51:03.153Z,2.80
2019-04-12T04:52:03.118Z,2.79
2019-04-12T04:53:03.122Z,2.80
2019-04-12T04:54:03.113Z,2.80
2019-04-12T04:55:03.180Z,2.83
2019-04-12T04:56:03.120Z,2.83
2019-04-12T04:57:03.185Z,2.85
2019-04-12T04:58:03.118Z,2.85
2019-04-12T04:59:03.192Z,2.85
2019-04-12T05:00:03.184Z,2.84
2019-04-12T05:01:03.103Z,2.83
2019-04-12T05:02:03.170Z,2.81
2019-04-12T05:03:03.175Z,2.80
2019-04-12T05:04:03.101Z,2.81
2019-04-12T05:05:03.176Z,2.80
2019-04-12T05:06:03.102Z,2.81
2019-04-12T05:07:03.179Z,2.80
2019-04-12T05:08:03.179Z,2.80
2019-04-12T05:09:03.118Z,2.80
2019-04-12T05:10:03.120Z,2.80
2019-04-12T05:11:03.198Z,2.81
2019-04-12T05:12:03.181Z,2.83
2019-04-12T05:13:03.191Z,2.83
2019-04-12T05:14:03.186Z,2.81
2019-04-12T05:15:03.187Z,2.81
2019-04-12T05:16:03.254Z,2.81
2019-04-12T05:17:03.192Z,2.81
2019-04-12T05:18:03.191Z,2.80
2019-04-12T05:19:03.181Z,2.80
2019-04-12T05:20:03.099Z,2.80
2019-04-12T05:21:03.125Z,2.80
2019-04-12T05:22:03.182Z,2.83
2019-04-12T05:23:03.185Z,2.81
2019-04-12T05:24:03.107Z,2.81
2019-04-12T05:25:03.186Z,2.80
2019-04-12T05:26:03.120Z,2.80
2019-04-12T05:27:03.124Z,2.80
2019-04-12T05:28:03.117Z,2.80
2019-04-12T05:29:03.167Z,2.80
2019-04-12T05:30:03.198Z,2.79
2019-04-12T05:31:03.199Z,2.80
2019-04-12T05:32:03.141Z,2.81
2019-04-12T05:33:03.202Z,2.81
2019-04-12T05:34:03.252Z,2.81
2019-04-12T05:35:03.206Z,2.83
2019-04-12T05:36:03.138Z,2.85
2019-04-12T05:37:10.233Z,2.84
2019-04-12T05:38:03.205Z,2.84
2019-04-12T05:39:03.207Z,2.84
2019-04-12T05:40:03.141Z,2.83
2019-04-12T05:41:03.201Z,2.83
2019-04-12T05:42:03.153Z,2.83
2019-04-12T05:43:03.211Z,2.83
2019-04-12T05:44:03.214Z,2.81
2019-04-12T05:45:03.217Z,2.80
2019-04-12T05:46:03.212Z,2.79
2019-04-12T05:47:03.220Z,2.79
2019-04-12T05:48:03.212Z,2.79
2019-04-12T05:49:03.276Z,2.77
2019-04-12T05:50:03.213Z,2.79
2019-04-12T05:51:03.213Z,2.79
2019-04-12T05:52:03.154Z,2.79
2019-04-12T05:53:03.212Z,2.79
2019-04-12T05:54:03.182Z,2.79
2019-04-12T05:55:04.387Z,2.80
2019-04-12T05:56:03.214Z,2.79
2019-04-12T05:57:03.153Z,2.79
2019-04-12T05:58:03.154Z,2.80
2019-04-12T05:59:03.210Z,2.79
2019-04-12T06:00:03.200Z,2.80
2019-04-12T06:01:03.210Z,2.79
2019-04-12T06:02:03.139Z,2.80
2019-04-12T06:03:03.217Z,2.80
2019-04-12T06:04:03.093Z,2.80
2019-04-12T06:05:03.209Z,2.83
2019-04-12T06:06:03.126Z,2.80
2019-04-12T06:07:03.216Z,2.83
2019-04-12T06:08:03.183Z,2.83
2019-04-12T06:09:03.234Z,2.83
2019-04-12T06:10:03.230Z,2.84
2019-04-12T06:11:03.231Z,2.85
2019-04-12T06:12:03.232Z,2.87
2019-04-12T06:13:05.314Z,2.87
2019-04-12T06:14:03.119Z,2.84
2019-04-12T06:15:03.171Z,2.84
2019-04-12T06:16:03.229Z,2.85
2019-04-12T06:17:03.171Z,2.88
2019-04-12T06:18:03.177Z,2.88
2019-04-12T06:19:03.236Z,2.91
2019-04-12T06:20:03.188Z,2.91
2019-04-12T06:21:03.233Z,2.92
2019-04-12T06:22:03.166Z,2.92
2019-04-12T06:23:03.245Z,2.94
2019-04-12T06:24:04.619Z,2.95
2019-04-12T06:25:03.214Z,2.98
2019-04-12T06:26:03.190Z,2.99
2019-04-12T06:27:09.881Z,2.99
2019-04-12T06:28:03.238Z,2.96
2019-04-12T06:29:03.155Z,2.95
2019-04-12T06:30:03.157Z,2.98
2019-04-12T06:31:03.161Z,2.95
2019-04-12T06:32:03.237Z,2.98
2019-04-12T06:33:03.243Z,3.01
2019-04-12T06:34:03.235Z,3.01
2019-04-12T06:35:03.167Z,3.03
2019-04-12T06:36:03.239Z,3.02
2019-04-12T06:37:03.159Z,3.02
2019-04-12T06:38:03.169Z,3.03
2019-04-12T06:39:03.163Z,3.07
2019-04-12T06:40:03.164Z,3.10
2019-04-12T06:41:03.179Z,3.12
2019-04-12T06:42:03.246Z,3.12
2019-04-12T06:43:03.241Z,3.14
2019-04-12T06:44:03.245Z,3.20
2019-04-12T06:45:03.157Z,3.22
2019-04-12T06:46:03.167Z,3.24
2019-04-12T06:47:03.326Z,3.25
2019-04-12T06:48:03.245Z,3.28
2019-04-12T06:49:03.181Z,3.29
2019-04-12T06:50:03.161Z,3.32
2019-04-12T06:51:03.183Z,3.36
2019-04-12T06:52:03.222Z,3.39
2019-04-12T06:53:03.247Z,3.42
2019-04-12T06:54:03.252Z,3.47
2019-04-12T06:55:03.164Z,3.55
2019-04-12T06:56:03.246Z,3.58
2019-04-12T06:57:03.255Z,3.65
2019-04-12T06:58:03.259Z,3.64
2019-04-12T06:59:03.269Z,3.66
2019-04-12T07:00:03.199Z,3.68
2019-04-12T07:01:03.271Z,3.69
2019-04-12T07:02:03.209Z,3.76
2019-04-12T07:03:03.281Z,3.76
2019-04-12T07:04:03.206Z,3.64
2019-04-12T07:05:03.200Z,3.73
2019-04-12T07:06:03.205Z,3.74
2019-04-12T07:07:03.276Z,3.76
2019-04-12T07:08:03.261Z,3.81
2019-04-12T07:09:03.273Z,3.87
2019-04-12T07:10:03.271Z,3.87
2019-04-12T07:11:03.272Z,3.93
2019-04-12T07:12:03.281Z,3.97
2019-04-12T07:13:03.218Z,3.95
2019-04-12T07:14:03.274Z,3.85
2019-04-12T07:15:03.278Z,3.95
2019-04-12T07:16:03.294Z,4.00
2019-04-12T07:17:03.225Z,4.04
2019-04-12T07:18:03.273Z,4.04
2019-04-12T07:19:03.212Z,4.04
2019-04-12T07:20:03.285Z,4.10
2019-04-12T07:21:03.282Z,4.14
2019-04-12T07:22:03.214Z,4.18
2019-04-12T07:23:03.277Z,4.21
2019-04-12T07:24:03.239Z,4.25
2019-04-12T07:25:03.301Z,4.33
2019-04-12T07:26:03.279Z,4.33
2019-04-12T07:27:03.216Z,4.35
2019-04-12T07:28:03.287Z,4.36
2019-04-12T07:29:03.212Z,4.40
2019-04-12T07:30:03.240Z,4.44
2019-04-12T07:31:03.281Z,4.44
2019-04-12T07:32:03.218Z,4.51
2019-04-12T07:33:03.293Z,4.51
2019-04-12T07:34:03.294Z,4.50
2019-04-12T07:35:03.224Z,4.50
2019-04-12T07:36:03.291Z,4.47
2019-04-12T07:37:03.219Z,4.48
2019-04-12T07:38:03.216Z,4.30
2019-04-12T07:39:03.289Z,4.18
2019-04-12T07:40:05.601Z,4.06
2019-04-12T07:41:03.221Z,3.77
2019-04-12T07:42:03.231Z,3.68
2019-04-12T07:43:03.320Z,3.51
2019-04-12T07:44:03.227Z,3.44
2019-04-12T07:45:03.296Z,3.47
2019-04-12T07:46:03.246Z,3.36
2019-04-12T07:47:03.302Z,3.32
2019-04-12T07:48:03.248Z,3.33
2019-04-12T07:49:03.216Z,3.42
2019-04-12T07:50:03.217Z,3.46
2019-04-12T07:51:03.242Z,3.47
2019-04-12T07:52:03.200Z,3.43
2019-04-12T07:53:03.303Z,3.40
2019-04-12T07:54:03.214Z,3.32
2019-04-12T07:55:03.291Z,3.37
2019-04-12T07:56:03.294Z,3.43
2019-04-12T07:57:03.213Z,3.36
2019-04-12T07:58:03.217Z,3.31
2019-04-12T07:59:03.243Z,3.33
2019-04-12T08:00:03.245Z,3.32
2019-04-12T08:01:03.253Z,3.35
2019-04-12T08:02:03.309Z,3.36
2019-04-12T08:03:03.308Z,3.29
2019-04-12T08:04:03.255Z,3.21
2019-04-12T08:05:03.310Z,3.22
2019-04-12T08:06:03.313Z,3.29
2019-04-12T08:07:03.417Z,3.36
2019-04-12T08:08:03.251Z,3.35
2019-04-12T08:09:03.280Z,3.36
2019-04-12T08:10:03.248Z,3.32
2019-04-12T08:11:03.311Z,3.35
2019-04-12T08:12:03.248Z,3.42
2019-04-12T08:13:03.313Z,3.39
2019-04-12T08:14:03.265Z,3.40
2019-04-12T08:15:12.565Z,3.42
2019-04-12T08:16:03.262Z,3.39
2019-04-12T08:17:03.249Z,3.35
2019-04-12T08:18:03.320Z,3.31
2019-04-12T08:19:03.232Z,3.31
2019-04-12T08:20:03.264Z,3.35
2019-04-12T08:21:03.327Z,3.37
2019-04-12T08:22:03.222Z,3.33
2019-04-12T08:23:03.316Z,3.26
2019-04-12T08:24:03.315Z,3.26
2019-04-12T08:25:04.757Z,3.31
2019-04-12T08:26:03.315Z,3.32
2019-04-12T08:27:03.313Z,3.33
2019-04-12T08:28:03.312Z,3.33
2019-04-12T08:29:03.290Z,3.36
2019-04-12T08:30:03.262Z,3.37
2019-04-12T08:31:03.338Z,3.47
2019-04-12T08:32:03.331Z,3.57
2019-04-12T08:33:03.263Z,3.66
2019-04-12T08:34:03.260Z,3.77
2019-04-12T08:35:03.331Z,3.83
2019-04-12T08:36:03.333Z,3.96
2019-04-12T08:37:03.269Z,3.99
2019-04-12T08:38:05.144Z,3.99
2019-04-12T08:39:03.253Z,3.97
2019-04-12T08:40:03.318Z,4.00
2019-04-12T08:41:03.322Z,4.00
2019-04-12T08:42:03.333Z,4.04
2019-04-12T08:43:03.298Z,4.15
2019-04-12T08:44:03.240Z,4.19
2019-04-12T08:45:03.291Z,4.19
2019-04-12T08:46:03.295Z,4.18
2019-04-12T08:47:03.277Z,4.14
2019-04-12T08:48:05.998Z,4.11
2019-04-12T08:49:03.339Z,4.18
2019-04-12T08:50:03.277Z,4.22
2019-04-12T08:51:03.288Z,4.25
2019-04-12T08:52:03.316Z,4.18
2019-04-12T08:53:03.322Z,4.11
2019-04-12T08:54:03.384Z,3.99
2019-04-12T08:55:03.278Z,3.99
2019-04-12T08:56:03.280Z,4.01
2019-04-12T08:57:03.357Z,4.06
2019-04-12T08:58:10.679Z,3.93
2019-04-12T08:59:03.306Z,3.89
2019-04-12T09:00:03.405Z,3.90
2019-04-12T09:01:03.309Z,3.95
2019-04-12T09:02:03.326Z,4.00
2019-04-12T09:03:03.378Z,4.06
2019-04-12T09:04:03.410Z,4.14
2019-04-12T09:05:03.303Z,4.18
2019-04-12T09:06:03.384Z,4.22
2019-04-12T09:07:03.398Z,4.24
2019-04-12T09:08:03.434Z,4.17
2019-04-12T09:09:03.365Z,4.08
2019-04-12T09:10:03.327Z,4.11
2019-04-12T09:11:03.415Z,4.07
2019-04-12T09:12:03.306Z,4.03
2019-04-12T09:13:03.294Z,3.99
2019-04-12T09:14:03.463Z,3.92
2019-04-12T09:15:03.354Z,3.76
2019-04-12T09:16:03.479Z,3.69
2019-04-12T09:17:03.522Z,3.51
2019-04-12T09:18:03.432Z,3.39
2019-04-12T09:19:03.337Z,3.33
2019-04-12T09:20:03.383Z,3.32
2019-04-12T09:21:03.397Z,3.31
2019-04-12T09:22:03.439Z,3.25
2019-04-12T09:23:03.318Z,3.24
2019-04-12T09:24:03.383Z,3.22
2019-04-12T09:25:03.270Z,3.21
2019-04-12T09:26:03.289Z,3.28
2019-04-12T09:27:03.424Z,3.32
2019-04-12T09:28:03.409Z,3.37
2019-04-12T09:29:03.341Z,3.40
2019-04-12T09:30:03.276Z,3.46
2019-04-12T09:31:03.437Z,3.51
2019-04-12T09:32:03.298Z,3.55
2019-04-12T09:33:03.268Z,3.66
2019-04-12T09:34:16.139Z,3.72
2019-04-12T09:35:03.319Z,3.57
2019-04-12T09:36:03.252Z,3.53
2019-04-12T09:37:03.323Z,3.53
2019-04-12T09:38:03.320Z,3.46
2019-04-12T09:39:03.376Z,3.48
2019-04-12T09:40:03.313Z,3.50
2019-04-12T09:41:03.329Z,3.44
2019-04-12T09:42:03.383Z,3.57
2019-04-12T09:43:03.403Z,3.69
2019-04-12T09:44:03.397Z,3.72
2019-04-12T09:45:03.319Z,3.76
2019-04-12T09:46:03.385Z,3.84
2019-04-12T09:47:03.318Z,4.01
2019-04-12T09:48:03.316Z,4.14
2019-04-12T09:49:03.396Z,4.29
2019-04-12T09:50:03.319Z,4.43
2019-04-12T09:51:03.450Z,4.39
2019-04-12T09:52:03.383Z,4.37
2019-04-12T09:53:03.455Z,4.47
2019-04-12T09:54:03.331Z,4.50
2019-04-12T09:55:03.395Z,4.47
2019-04-12T09:56:03.323Z,4.54
2019-04-12T09:57:03.397Z,4.51
2019-04-12T09:58:03.324Z,4.55
2019-04-12T09:59:03.380Z,4.39
2019-04-12T10:00:03.376Z,4.39
2019-04-12T10:01:03.256Z,4.59
2019-04-12T10:02:13.283Z,4.74
2019-04-12T10:03:03.371Z,4.92
2019-04-12T10:04:03.318Z,5.04
2019-04-12T10:05:03.293Z,5.15
2019-04-12T10:06:03.384Z,5.19
2019-04-12T10:07:03.299Z,5.21
2019-04-12T10:08:03.296Z,5.40
2019-04-12T10:09:03.321Z,5.64
2019-04-12T10:10:03.402Z,5.88
2019-04-12T10:11:03.402Z,5.89
2019-04-12T10:12:03.348Z,6.11
2019-04-12T10:13:03.401Z,6.15
2019-04-12T10:14:03.404Z,6.19
2019-04-12T10:15:03.419Z,6.08
2019-04-12T10:16:03.405Z,5.99
2019-04-12T10:17:03.341Z,5.99
2019-04-12T10:18:03.428Z,6.12
2019-04-12T10:19:03.342Z,6.26
2019-04-12T10:20:03.338Z,6.38
2019-04-12T10:21:03.303Z,6.56
2019-04-12T10:22:03.338Z,6.59
2019-04-12T10:23:03.338Z,6.67
2019-04-12T10:24:03.408Z,6.67
2019-04-12T10:25:03.360Z,6.67
2019-04-12T10:26:03.372Z,6.52
2019-04-12T10:27:03.345Z,6.66
2019-04-12T10:28:03.412Z,6.57
2019-04-12T10:29:03.411Z,6.61
2019-04-12T10:30:03.420Z,6.56
2019-04-12T10:31:03.346Z,6.33
2019-04-12T10:32:03.470Z,6.11
2019-04-12T10:33:03.364Z,5.97
2019-04-12T10:34:03.427Z,5.86
2019-04-12T10:35:03.347Z,5.74
2019-04-12T10:36:03.350Z,5.57
2019-04-12T10:37:03.355Z,5.59
2019-04-12T10:38:03.427Z,5.59
2019-04-12T10:39:03.420Z,5.59
2019-04-12T10:40:03.343Z,5.60
2019-04-12T10:41:03.409Z,5.62
2019-04-12T10:42:03.411Z,5.66
2019-04-12T10:43:03.415Z,5.64
2019-04-12T10:44:03.339Z,5.51
2019-04-12T10:45:03.497Z,5.49
2019-04-12T10:46:03.351Z,5.27
2019-04-12T10:47:03.334Z,5.10
2019-04-12T10:48:03.920Z,4.95
2019-04-12T10:49:03.379Z,4.71
2019-04-12T10:50:03.417Z,4.55
2019-04-12T10:51:03.326Z,4.48
2019-04-12T10:52:03.326Z,4.37
2019-04-12T10:53:03.320Z,4.39
2019-04-12T10:54:03.296Z,4.40
2019-04-12T10:55:03.351Z,4.36
2019-04-12T10:56:03.424Z,4.36
2019-04-12T10:57:03.417Z,4.39
2019-04-12T10:58:03.366Z,4.40
2019-04-12T10:59:03.556Z,4.37
2019-04-12T11:00:03.434Z,4.19
2019-04-12T11:01:03.439Z,4.06
2019-04-12T11:02:03.374Z,4.01
2019-04-12T11:03:03.441Z,4.11
2019-04-12T11:04:03.380Z,4.15
2019-04-12T11:05:03.437Z,4.21
2019-04-12T11:06:03.438Z,4.32
2019-04-12T11:07:03.370Z,4.44
2019-04-12T11:08:03.440Z,4.48
2019-04-12T11:09:03.371Z,4.62
2019-04-12T11:10:03.336Z,4.71
2019-04-12T11:11:03.370Z,4.82
2019-04-12T11:12:03.369Z,4.87
2019-04-12T11:13:03.310Z,4.92
2019-04-12T11:14:03.322Z,4.96
2019-04-12T11:15:03.371Z,4.98
2019-04-12T11:16:03.336Z,4.98
2019-04-12T11:17:03.343Z,4.87
2019-04-12T11:18:03.345Z,4.84
2019-04-12T11:19:03.436Z,4.75
2019-04-12T11:20:03.343Z,4.73
2019-04-12T11:21:03.403Z,4.67
2019-04-12T11:22:03.390Z,4.54
2019-04-12T11:23:03.408Z,4.46
2019-04-12T11:24:03.415Z,4.39
2019-04-12T11:25:03.426Z,4.26
2019-04-12T11:26:03.431Z,4.28
2019-04-12T11:27:03.323Z,4.21
2019-04-12T11:28:03.383Z,4.19
2019-04-12T11:29:15.976Z,4.14
2019-04-12T11:30:03.434Z,4.12
2019-04-12T11:31:03.435Z,4.11
2019-04-12T11:32:03.436Z,4.04
2019-04-12T11:33:03.354Z,4.00
2019-04-12T11:34:03.411Z,4.01
2019-04-12T11:35:03.335Z,4.07
2019-04-12T11:36:03.439Z,4.15
2019-04-12T11:37:03.451Z,4.21
2019-04-12T11:38:03.417Z,4.17
2019-04-12T11:39:03.385Z,4.15
2019-04-12T11:40:03.392Z,4.22
2019-04-12T11:41:03.483Z,4.21
2019-04-12T11:42:03.463Z,4.22
2019-04-12T11:43:03.467Z,4.28
2019-04-12T11:44:03.467Z,4.36
2019-04-12T11:45:03.479Z,4.48
2019-04-12T11:46:03.469Z,4.57
2019-04-12T11:47:03.473Z,4.60
2019-04-12T11:48:03.479Z,4.64
2019-04-12T11:49:03.536Z,4.73
2019-04-12T11:50:03.415Z,4.78
2019-04-12T11:51:03.755Z,4.78
2019-04-12T11:52:03.403Z,4.78
2019-04-12T11:53:03.482Z,4.75
2019-04-12T11:54:03.415Z,4.71
2019-04-12T11:55:03.476Z,4.64
2019-04-12T11:56:03.413Z,4.51
2019-04-12T11:57:03.478Z,4.47
2019-04-12T11:58:03.490Z,4.36
2019-04-12T11:59:03.408Z,4.25
2019-04-12T12:00:03.468Z,4.12
2019-04-12T12:01:03.409Z,4.04
2019-04-12T12:02:03.414Z,3.95
2019-04-12T12:03:03.355Z,3.80
2019-04-12T12:04:03.386Z,3.65
2019-04-12T12:05:03.414Z,3.65
2019-04-12T12:06:03.474Z,3.59
2019-04-12T12:07:03.408Z,3.58
2019-04-12T12:08:03.415Z,3.55
2019-04-12T12:09:05.099Z,3.61
2019-04-12T12:10:03.415Z,3.69
2019-04-12T12:11:03.423Z,3.78
2019-04-12T12:12:03.425Z,3.96
2019-04-12T12:13:03.488Z,4.04
2019-04-12T12:14:03.490Z,4.15
2019-04-12T12:15:03.502Z,4.19
2019-04-12T12:16:03.499Z,4.28
2019-04-12T12:17:03.421Z,4.37
2019-04-12T12:18:03.487Z,4.47
2019-04-12T12:19:03.491Z,4.57
2019-04-12T12:20:03.501Z,4.73
2019-04-12T12:21:03.437Z,4.70
2019-04-12T12:22:03.491Z,4.80
2019-04-12T12:23:03.428Z,4.88
2019-04-12T12:24:03.501Z,4.99
2019-04-12T12:25:03.493Z,5.16
2019-04-12T12:26:03.498Z,5.16
2019-04-12T12:27:03.500Z,5.22
2019-04-12T12:28:03.506Z,5.38
2019-04-12T12:29:03.510Z,5.41
2019-04-12T12:30:03.509Z,5.44
2019-04-12T12:31:03.503Z,5.40
2019-04-12T12:32:03.505Z,5.44
2019-04-12T12:33:03.440Z,5.44
2019-04-12T12:34:03.506Z,5.49
2019-04-12T12:35:03.441Z,5.55
2019-04-12T12:36:03.499Z,5.60
2019-04-12T12:37:03.513Z,5.59
2019-04-12T12:38:03.506Z,5.68
2019-04-12T12:39:03.511Z,5.56
2019-04-12T12:40:03.504Z,5.64
2019-04-12T12:41:03.393Z,5.66
2019-04-12T12:42:03.503Z,5.67
2019-04-12T12:43:03.497Z,5.70
2019-04-12T12:44:03.472Z,5.70
2019-04-12T12:45:03.503Z,5.67
2019-04-12T12:46:03.427Z,5.64
2019-04-12T12:47:03.431Z,5.64
2019-04-12T12:48:03.509Z,5.70
2019-04-12T12:49:03.505Z,5.68
2019-04-12T12:50:03.446Z,5.45
2019-04-12T12:51:03.444Z,5.38
2019-04-12T12:52:03.458Z,5.40
2019-04-12T12:53:03.448Z,5.38
2019-04-12T12:54:03.520Z,5.40
2019-04-12T12:55:03.497Z,5.44
2019-04-12T12:56:03.468Z,5.49
2019-04-12T12:57:03.520Z,5.57
2019-04-12T12:58:03.520Z,5.48
2019-04-12T12:59:03.541Z,5.29
2019-04-12T13:00:03.440Z,5.30
2019-04-12T13:01:03.437Z,5.26
2019-04-12T13:02:03.410Z,5.18
2019-04-12T13:03:03.385Z,5.10
2019-04-12T13:04:03.424Z,5.22
2019-04-12T13:05:03.407Z,5.15
2019-04-12T13:06:03.428Z,4.95
2019-04-12T13:07:03.468Z,4.91
2019-04-12T13:08:03.447Z,4.89
2019-04-12T13:09:03.383Z,4.74
2019-04-12T13:10:03.768Z,4.73
2019-04-12T13:11:03.523Z,4.85
2019-04-12T13:12:03.446Z,4.91
2019-04-12T13:13:03.465Z,4.98
2019-04-12T13:14:03.517Z,5.02
2019-04-12T13:15:03.518Z,5.10
2019-04-12T13:16:03.421Z,5.18
2019-04-12T13:17:03.422Z,5.27
2019-04-12T13:18:03.513Z,5.34